Time;durP1;ratioP1;P1;durP2;ratioP2;P2;SDS_P1;SDS_P2;PMS_P1;PMS_P2;Temp;Humidity;BMP_temperature;BMP_pressure;BME280_temperature;BME280_humidity;BME280_pressure;Samples;Min_cycle;Max_cycle;Signal;HPM_P1;HPM_P2
2021/08/24 00:02:14;;;;;;;4.85;3.10;;;14.90;99.90;;;;;;5093277;28;20146;-72
2021/08/24 00:04:40;;;;;;;4.20;2.72;;;14.90;99.90;;;;;;5092416;28;20099;-72
2021/08/24 00:07:05;;;;;;;4.45;2.40;;;14.80;99.90;;;;;;5092993;28;20106;-73
2021/08/24 00:09:32;;;;;;;3.25;2.50;;;14.80;99.90;;;;;;5091542;28;20102;-72
2021/08/24 00:11:58;;;;;;;6.95;2.92;;;14.80;99.90;;;;;;5092266;28;20023;-73
2021/08/24 00:14:24;;;;;;;4.20;2.90;;;14.80;99.90;;;;;;5092985;28;20031;-72
2021/08/24 00:16:49;;;;;;;4.28;2.58;;;14.70;99.90;;;;;;5092868;28;20392;-73
2021/08/24 00:19:15;;;;;;;2.97;2.38;;;14.70;99.90;;;;;;5091057;28;20039;-76
2021/08/24 00:21:41;;;;;;;3.08;2.42;;;14.70;99.90;;;;;;5092615;28;20085;-72
2021/08/24 00:24:10;;;;;;;5.07;2.47;;;14.70;99.90;;;;;;5091671;28;20028;-75
2021/08/24 00:26:36;;;;;;;3.88;2.55;;;14.70;99.90;;;;;;5091027;28;20028;-73
2021/08/24 00:29:02;;;;;;;5.15;2.95;;;14.70;99.90;;;;;;5092626;28;20468;-73
2021/08/24 00:31:28;;;;;;;3.08;2.35;;;14.60;99.90;;;;;;5091724;28;20020;-76
2021/08/24 00:33:54;;;;;;;3.70;2.40;;;14.70;99.90;;;;;;5092054;28;20032;-74
2021/08/24 00:36:20;;;;;;;3.42;2.58;;;14.60;99.90;;;;;;5091659;28;20020;-73
2021/08/24 00:38:47;;;;;;;3.63;2.40;;;14.60;99.90;;;;;;5092593;28;20035;-73
2021/08/24 00:41:12;;;;;;;4.95;2.72;;;14.50;99.90;;;;;;5091894;28;20027;-77
2021/08/24 00:43:41;;;;;;;4.90;2.95;;;14.50;99.90;;;;;;5096139;28;20036;-75
2021/08/24 00:46:31;;;;;;;9.65;3.08;;;14.50;99.90;;;;;;5095711;28;20020;-76
2021/08/24 00:49:03;;;;;;;6.75;2.58;;;14.50;99.90;;;;;;5096754;28;20357;-72
2021/08/24 00:51:32;;;;;;;2.90;2.30;;;14.50;99.90;;;;;;5096669;28;20106;-73
2021/08/24 00:53:58;;;;;;;3.35;2.33;;;14.40;99.90;;;;;;5095913;28;20056;-73
2021/08/24 00:56:24;;;;;;;3.17;2.60;;;14.40;99.90;;;;;;5096812;28;20051;-72
2021/08/24 00:58:49;;;;;;;4.18;2.88;;;14.40;99.90;;;;;;5096492;28;20069;-73
2021/08/24 01:01:15;;;;;;;4.10;2.53;;;14.40;99.90;;;;;;5095947;28;20459;-73
2021/08/24 01:03:44;;;;;;;4.97;2.92;;;14.30;99.90;;;;;;5096245;28;20040;-73
2021/08/24 01:06:34;;;;;;;5.20;2.90;;;14.30;99.90;;;;;;5095259;28;20468;-77
2021/08/24 01:09:33;;;;;;;6.28;3.40;;;14.30;99.90;;;;;;5094277;28;20027;-73
2021/08/24 01:12:03;;;;;;;5.47;3.38;;;14.40;99.90;;;;;;5094864;28;20020;-74
2021/08/24 01:14:37;;;;;;;4.10;2.78;;;14.30;99.90;;;;;;5096262;28;20075;-72
2021/08/24 01:17:18;;;;;;;7.25;3.38;;;14.30;99.90;;;;;;5096148;28;20032;-73
2021/08/24 01:20:08;;;;;;;6.45;3.70;;;14.30;99.90;;;;;;5096021;28;20027;-72
2021/08/24 01:22:57;;;;;;;4.15;3.03;;;14.30;99.90;;;;;;5094144;28;20408;-73
2021/08/24 01:25:22;;;;;;;6.13;3.25;;;14.30;99.90;;;;;;5096357;28;20063;-73
2021/08/24 01:28:08;;;;;;;4.55;3.10;;;14.30;99.90;;;;;;5094553;28;20028;-72
2021/08/24 01:31:10;;;;;;;5.03;2.95;;;14.20;99.90;;;;;;5083300;28;20031;-72
2021/08/24 01:33:52;;;;;;;6.95;3.28;;;14.20;99.90;;;;;;5074049;28;20111;-72
2021/08/24 01:36:33;;;;;;;7.25;3.28;;;14.20;99.90;;;;;;5095398;28;20024;-72
2021/08/24 01:39:11;;;;;;;3.20;2.70;;;14.10;99.90;;;;;;5095628;28;20099;-72
2021/08/24 01:42:08;;;;;;;4.35;3.08;;;14.10;99.90;;;;;;5095802;28;20357;-74
2021/08/24 01:44:40;;;;;;;5.05;3.00;;;14.00;99.90;;;;;;5093955;28;20032;-73
2021/08/24 01:47:28;;;;;;;6.47;4.28;;;14.00;99.90;;;;;;5095782;28;20028;-72
2021/08/24 01:50:17;;;;;;;4.32;3.00;;;14.00;99.90;;;;;;5094798;28;20028;-72
2021/08/24 01:52:49;;;;;;;3.75;3.33;;;14.00;99.90;;;;;;5094228;28;20020;-72
2021/08/24 01:55:20;;;;;;;;;;;13.90;99.90;;;;;;5094928;28;20102;-72
2021/08/24 01:57:52;;;;;;;4.32;3.35;;;13.90;99.90;;;;;;5094483;28;19912;-72
2021/08/24 02:00:18;;;;;;;5.45;3.47;;;13.80;99.90;;;;;;5094149;28;20115;-73
2021/08/24 02:02:55;;;;;;;4.95;3.42;;;13.80;99.90;;;;;;5094793;28;20043;-73
2021/08/24 02:05:26;;;;;;;6.53;3.50;;;13.80;99.90;;;;;;5093833;28;20012;-73
2021/08/24 02:08:06;;;;;;;6.63;4.40;;;13.80;99.90;;;;;;5093857;28;20116;-73
2021/08/24 02:10:34;;;;;;;7.25;3.97;;;13.80;99.90;;;;;;5095224;28;20108;-74
2021/08/24 02:13:01;;;;;;;6.90;3.83;;;13.80;99.90;;;;;;5092993;28;20048;-75
2021/08/24 02:15:36;;;;;;;5.45;3.85;;;13.80;99.90;;;;;;5094169;28;20429;-74
2021/08/24 02:18:04;;;;;;;3.72;3.28;;;13.80;99.90;;;;;;5094260;28;20541;-74
2021/08/24 02:20:35;;;;;;;4.07;3.60;;;13.80;99.90;;;;;;5094832;28;20094;-72
2021/08/24 02:23:14;;;;;;;5.28;3.40;;;13.80;99.90;;;;;;5094765;28;20388;-73
2021/08/24 02:25:44;;;;;;;8.20;3.97;;;13.80;99.90;;;;;;5094478;28;20031;-76
2021/08/24 02:28:15;;;;;;;4.85;3.72;;;13.80;99.90;;;;;;5094839;28;20030;-75
2021/08/24 02:30:54;;;;;;;4.22;3.83;;;13.80;99.90;;;;;;5093283;28;20022;-75
2021/08/24 02:33:21;;;;;;;4.07;3.40;;;13.70;99.90;;;;;;5092141;28;20025;-74
2021/08/24 02:35:53;;;;;;;5.28;3.60;;;13.70;99.90;;;;;;5094668;28;20387;-75
2021/08/24 02:38:25;;;;;;;5.43;4.10;;;13.70;99.90;;;;;;5103240;28;20020;-75
2021/08/24 02:40:53;;;;;;;;;;;13.70;99.90;;;;;;5092888;28;20115;-74
2021/08/24 02:43:22;;;;;;;8.10;4.05;;;13.70;99.90;;;;;;5102972;28;19919;-76
2021/08/24 02:46:12;;;;;;;10.70;5.15;;;13.70;99.90;;;;;;5113832;28;20537;-78
2021/08/24 02:48:40;;;;;;;6.53;4.47;;;13.70;99.90;;;;;;5113783;28;20108;-74
2021/08/24 02:51:07;;;;;;;6.65;3.92;;;13.60;99.90;;;;;;5109158;28;20356;-74
2021/08/24 02:53:35;;;;;;;8.00;4.82;;;13.60;99.90;;;;;;5092627;28;20016;-75
2021/08/24 02:56:00;;;;;;;5.30;4.47;;;13.60;99.90;;;;;;5094014;28;20484;-74
2021/08/24 02:58:26;;;;;;;9.60;4.40;;;13.60;99.90;;;;;;5094535;28;20050;-76
2021/08/24 03:00:52;;;;;;;5.85;4.15;;;13.60;99.90;;;;;;5091834;28;20433;-76
2021/08/24 03:03:18;;;;;;;6.32;4.68;;;13.50;99.90;;;;;;5092629;28;20097;-75
2021/08/24 03:05:44;;;;;;;8.05;4.90;;;13.60;99.90;;;;;;5089477;28;20016;-77
2021/08/24 03:08:10;;;;;;;5.38;4.57;;;13.60;99.90;;;;;;5092691;28;20024;-76
2021/08/24 03:10:40;;;;;;;6.32;4.70;;;13.60;99.90;;;;;;5092475;28;20024;-77
2021/08/24 03:13:11;;;;;;;7.57;5.40;;;13.60;99.90;;;;;;5092859;28;20135;-76
2021/08/24 03:15:54;;;;;;;7.30;5.60;;;13.60;99.90;;;;;;5092339;28;20020;-76
2021/08/24 03:18:26;;;;;;;5.75;4.88;;;13.60;99.90;;;;;;5092959;28;20036;-78
2021/08/24 03:20:54;;;;;;;;;;;13.60;99.90;;;;;;5094328;28;20027;-77
2021/08/24 03:23:22;;;;;;;6.88;5.00;;;13.60;99.90;;;;;;5092091;28;20022;-76
2021/08/24 03:25:49;;;;;;;6.40;5.32;;;13.50;99.90;;;;;;5092502;28;20089;-78
2021/08/24 03:28:19;;;;;;;10.23;5.15;;;13.50;99.90;;;;;;5093213;28;20024;-76
2021/08/24 03:30:45;;;;;;;7.68;5.38;;;13.50;99.90;;;;;;5092280;28;20031;-78
2021/08/24 03:33:13;;;;;;;9.15;6.18;;;13.50;99.90;;;;;;5092505;28;20068;-76
2021/08/24 03:35:39;;;;;;;6.55;4.90;;;13.50;99.90;;;;;;5091853;28;20016;-76
2021/08/24 03:38:05;;;;;;;10.57;5.72;;;13.50;99.90;;;;;;5092086;28;20024;-73
2021/08/24 03:40:31;;;;;;;7.72;5.50;;;13.50;99.90;;;;;;5092253;28;20020;-75
2021/08/24 03:42:57;;;;;;;8.65;5.78;;;13.50;99.90;;;;;;5091442;28;20032;-76
2021/08/24 03:45:23;;;;;;;9.15;6.05;;;13.50;99.90;;;;;;5092285;28;20020;-76
2021/08/24 03:47:48;;;;;;;8.05;5.95;;;13.50;99.90;;;;;;5093088;28;20026;-74
2021/08/24 03:50:14;;;;;;;7.45;5.25;;;13.50;99.90;;;;;;5092543;28;20077;-75
2021/08/24 03:52:40;;;;;;;7.97;5.60;;;13.50;99.90;;;;;;5092278;28;20031;-75
2021/08/24 03:55:06;;;;;;;9.93;5.60;;;13.50;99.90;;;;;;5093375;28;20020;-76
2021/08/24 03:57:31;;;;;;;7.45;5.75;;;13.50;99.90;;;;;;5091465;28;20144;-74
2021/08/24 03:59:57;;;;;;;13.27;6.53;;;13.40;99.90;;;;;;5091386;28;20022;-74
2021/08/24 04:02:25;;;;;;;7.35;5.88;;;13.40;99.90;;;;;;5091849;28;20058;-74
2021/08/24 04:04:50;;;;;;;10.10;5.93;;;13.40;99.90;;;;;;5090917;28;20127;-74
2021/08/24 04:07:16;;;;;;;6.97;5.38;;;13.40;99.90;;;;;;5092413;28;20064;-75
2021/08/24 04:09:42;;;;;;;8.07;5.55;;;13.40;99.90;;;;;;5092928;28;20032;-76
2021/08/24 04:12:08;;;;;;;8.68;5.55;;;13.50;99.90;;;;;;5091155;28;20028;-76
2021/08/24 04:14:33;;;;;;;7.38;5.82;;;13.50;99.90;;;;;;5091572;28;20044;-78
2021/08/24 04:16:59;;;;;;;11.93;5.75;;;13.50;99.90;;;;;;5090960;28;20111;-76
2021/08/24 04:19:25;;;;;;;11.65;6.15;;;13.50;99.90;;;;;;5092306;28;20476;-76
2021/08/24 04:21:50;;;;;;;11.77;5.72;;;13.40;99.90;;;;;;5092586;28;20053;-77
2021/08/24 04:24:16;;;;;;;5.70;5.10;;;13.40;99.90;;;;;;5092953;28;20043;-76
2021/08/24 04:26:41;;;;;;;11.25;5.82;;;13.30;99.90;;;;;;5092061;28;20078;-77
2021/08/24 04:29:07;;;;;;;10.38;5.72;;;13.30;99.90;;;;;;5092957;28;20031;-76
2021/08/24 04:31:39;;;;;;;9.70;6.10;;;13.30;99.90;;;;;;5092204;28;20460;-77
2021/08/24 04:34:05;;;;;;;;;;;13.30;99.90;;;;;;5091847;28;20032;-77
2021/08/24 04:36:31;;;;;;;8.23;5.70;;;13.30;99.90;;;;;;5091775;28;19930;-79
2021/08/24 04:38:56;;;;;;;13.95;6.53;;;13.20;99.90;;;;;;5091106;28;20044;-77
2021/08/24 04:41:22;;;;;;;10.75;7.00;;;13.20;99.90;;;;;;5091499;28;20051;-76
2021/08/24 04:43:48;;;;;;;9.30;6.75;;;13.20;99.90;;;;;;5092384;28;20484;-76
2021/08/24 04:46:13;;;;;;;7.38;6.03;;;13.30;99.90;;;;;;5092240;28;20024;-76
2021/08/24 04:48:39;;;;;;;14.30;6.97;;;13.30;99.90;;;;;;5091562;28;20012;-77
2021/08/24 04:51:04;;;;;;;9.25;6.35;;;13.30;99.90;;;;;;5091469;28;20372;-76
2021/08/24 04:53:30;;;;;;;8.93;6.13;;;13.30;99.90;;;;;;5091229;28;20020;-77
2021/08/24 04:55:56;;;;;;;8.63;6.95;;;13.30;99.90;;;;;;5091328;28;20020;-77
2021/08/24 04:58:23;;;;;;;8.68;6.60;;;13.40;99.90;;;;;;5091783;28;20070;-77
2021/08/24 05:00:49;;;;;;;8.65;6.50;;;13.40;99.90;;;;;;5090661;28;20016;-77
2021/08/24 05:03:15;;;;;;;11.77;6.78;;;13.40;99.90;;;;;;5091671;28;20503;-77
2021/08/24 05:05:40;;;;;;;10.88;6.35;;;13.40;99.90;;;;;;5090136;28;20020;-78
2021/08/24 05:08:06;;;;;;;9.02;6.53;;;13.40;99.90;;;;;;5089806;28;20545;-76
2021/08/24 05:10:32;;;;;;;11.18;7.28;;;13.50;99.90;;;;;;5090852;28;20057;-75
2021/08/24 05:13:00;;;;;;;10.93;6.85;;;13.50;99.90;;;;;;5090054;28;20040;-76
2021/08/24 05:15:26;;;;;;;7.68;6.28;;;13.50;99.90;;;;;;5091147;28;20415;-75
2021/08/24 05:17:52;;;;;;;7.95;6.30;;;13.50;99.90;;;;;;5091976;28;20028;-76
2021/08/24 05:20:19;;;;;;;8.93;6.95;;;13.50;99.90;;;;;;5092219;28;20480;-75
2021/08/24 05:22:46;;;;;;;9.18;6.93;;;13.50;99.90;;;;;;5090431;28;20042;-76
2021/08/24 05:25:14;;;;;;;8.70;6.25;;;13.50;99.90;;;;;;5078724;28;20392;-76
2021/08/24 05:27:40;;;;;;;7.50;6.38;;;13.50;99.90;;;;;;5092457;28;20522;-75
2021/08/24 05:30:09;;;;;;;12.52;6.85;;;13.50;99.90;;;;;;5093456;28;20028;-73
2021/08/24 05:32:35;;;;;;;11.63;6.80;;;13.60;99.90;;;;;;5080535;28;20027;-73
2021/08/24 05:35:00;;;;;;;11.52;6.18;;;13.60;99.90;;;;;;5073264;28;20021;-75
2021/08/24 05:37:26;;;;;;;16.50;7.72;;;13.60;99.90;;;;;;5075791;28;20025;-74
2021/08/24 05:39:52;;;;;;;10.68;7.38;;;13.70;99.90;;;;;;5074200;28;20070;-73
2021/08/24 05:42:17;;;;;;;8.43;6.88;;;13.70;99.90;;;;;;5074734;28;20072;-74
2021/08/24 05:44:44;;;;;;;9.23;6.68;;;13.80;99.90;;;;;;5074882;28;20024;-73
2021/08/24 05:47:10;;;;;;;8.68;6.82;;;13.80;99.90;;;;;;5082697;28;20032;-74
2021/08/24 05:49:36;;;;;;;10.85;6.13;;;13.80;99.90;;;;;;5095119;28;20027;-74
2021/08/24 05:52:02;;;;;;;10.18;6.68;;;13.90;99.90;;;;;;5095358;28;20051;-75
2021/08/24 05:54:29;;;;;;;10.25;7.45;;;13.90;99.90;;;;;;5092657;28;20036;-75
2021/08/24 05:56:55;;;;;;;9.02;7.10;;;13.90;99.90;;;;;;5107961;28;20053;-73
2021/08/24 05:59:21;;;;;;;8.57;6.65;;;14.10;99.90;;;;;;5093063;28;20016;-76
2021/08/24 06:01:47;;;;;;;9.98;6.45;;;14.10;99.90;;;;;;5093967;28;20053;-78
2021/08/24 06:04:12;;;;;;;9.85;6.93;;;14.10;99.90;;;;;;5076417;28;20059;-73
2021/08/24 06:06:40;;;;;;;7.60;6.25;;;14.30;99.90;;;;;;5093310;28;20561;-75
2021/08/24 06:09:08;;;;;;;9.63;6.70;;;14.30;99.90;;;;;;5085499;28;20020;-73
2021/08/24 06:11:47;;;;;;;12.32;6.97;;;14.40;99.90;;;;;;5083808;28;20463;-73
2021/08/24 06:14:14;;;;;;;11.20;6.60;;;14.50;99.90;;;;;;5104127;28;20048;-76
2021/08/24 06:16:40;;;;;;;9.85;6.72;;;14.50;99.90;;;;;;5074893;28;20524;-75
2021/08/24 06:19:07;;;;;;;10.18;7.10;;;14.50;99.90;;;;;;5072796;28;20024;-72
2021/08/24 06:21:33;;;;;;;8.68;6.20;;;14.60;99.90;;;;;;5092709;28;20052;-73
2021/08/24 06:23:59;;;;;;;9.52;6.53;;;14.60;99.90;;;;;;5091824;28;20531;-72
2021/08/24 06:26:24;;;;;;;8.75;5.97;;;14.60;99.90;;;;;;5092609;28;20114;-74
2021/08/24 06:28:50;;;;;;;11.98;6.38;;;14.70;99.90;;;;;;5092861;28;20027;-72
2021/08/24 06:31:22;;;;;;;7.50;5.82;;;14.70;99.90;;;;;;5092348;28;20058;-73
2021/08/24 06:33:48;;;;;;;8.10;6.20;;;14.80;99.90;;;;;;5092859;28;20024;-73
2021/08/24 06:36:15;;;;;;;8.82;5.70;;;14.90;99.90;;;;;;5093531;28;20023;-73
2021/08/24 06:38:41;;;;;;;10.50;6.60;;;14.90;99.90;;;;;;5092064;28;20054;-74
2021/08/24 06:41:07;;;;;;;7.88;5.38;;;14.90;99.90;;;;;;5107780;27;20070;-73
2021/08/24 06:43:33;;;;;;;12.95;7.60;;;15.00;99.90;;;;;;5083706;28;20040;-77
2021/08/24 06:45:59;;;;;;;10.98;6.70;;;15.10;99.90;;;;;;5072458;28;20016;-78
2021/08/24 06:48:24;;;;;;;7.72;6.05;;;15.10;99.90;;;;;;5073542;28;20473;-77
2021/08/24 06:50:51;;;;;;;9.73;6.13;;;15.20;99.90;;;;;;5072705;28;20050;-75
2021/08/24 06:53:17;;;;;;;6.63;5.80;;;15.20;99.90;;;;;;5074786;28;20024;-73
2021/08/24 06:55:42;;;;;;;12.02;6.72;;;15.20;99.90;;;;;;5088812;28;20473;-72
2021/08/24 06:58:09;;;;;;;13.32;5.93;;;15.20;99.90;;;;;;5087451;28;20468;-73
2021/08/24 07:00:36;;;;;;;8.45;7.03;;;15.30;99.90;;;;;;5093279;28;20099;-75
2021/08/24 07:03:05;;;;;;;9.00;6.68;;;15.30;99.90;;;;;;5093888;28;20043;-75
2021/08/24 07:05:31;;;;;;;7.45;6.32;;;15.30;99.90;;;;;;5094266;28;20035;-73
2021/08/24 07:07:57;;;;;;;8.00;6.15;;;15.40;99.90;;;;;;5093207;28;20035;-75
2021/08/24 07:10:24;;;;;;;12.82;7.30;;;15.40;99.90;;;;;;5092824;28;20016;-74
2021/08/24 07:12:50;;;;;;;7.90;6.30;;;15.50;99.90;;;;;;5093679;28;20127;-72
2021/08/24 07:15:19;;;;;;;10.77;6.78;;;15.50;99.90;;;;;;5093430;28;20457;-73
2021/08/24 07:17:47;;;;;;;11.23;7.53;;;15.60;99.90;;;;;;5094153;28;20028;-73
2021/08/24 07:20:15;;;;;;;10.02;7.07;;;15.60;99.90;;;;;;5093974;28;20020;-73
2021/08/24 07:22:40;;;;;;;10.52;6.25;;;15.60;99.90;;;;;;5092890;28;20123;-72
2021/08/24 07:25:10;;;;;;;9.55;6.65;;;15.70;99.90;;;;;;5092871;28;20074;-73
2021/08/24 07:27:35;;;;;;;10.70;7.20;;;15.70;99.90;;;;;;5093302;28;20365;-72
2021/08/24 07:30:01;;;;;;;11.15;7.20;;;15.80;99.90;;;;;;5093552;28;20054;-72
2021/08/24 07:32:27;;;;;;;9.27;7.28;;;15.80;99.90;;;;;;5092510;28;20024;-73
2021/08/24 07:34:52;;;;;;;9.40;6.53;;;15.90;99.90;;;;;;5091183;28;20024;-75
2021/08/24 07:37:18;;;;;;;12.07;6.90;;;15.90;99.90;;;;;;5093712;28;20063;-72
2021/08/24 07:39:43;;;;;;;8.80;6.35;;;16.00;99.90;;;;;;5091720;28;20012;-72
2021/08/24 07:42:10;;;;;;;7.85;6.40;;;16.00;99.90;;;;;;5092719;28;20489;-72
2021/08/24 07:44:38;;;;;;;8.43;6.35;;;16.10;99.90;;;;;;5092210;28;20016;-72
2021/08/24 07:47:07;;;;;;;6.68;5.95;;;16.10;99.90;;;;;;5091818;28;20119;-72
2021/08/24 07:49:35;;;;;;;7.07;5.85;;;16.20;99.90;;;;;;5091323;28;20031;-72
2021/08/24 07:52:10;;;;;;;9.82;6.00;;;16.20;99.90;;;;;;5091163;28;20035;-72
2021/08/24 07:54:36;;;;;;;8.57;5.55;;;16.30;99.90;;;;;;5092127;28;20020;-74
2021/08/24 07:57:02;;;;;;;6.60;5.60;;;16.40;99.90;;;;;;5092323;28;20472;-71
2021/08/24 07:59:28;;;;;;;6.85;5.53;;;16.40;99.90;;;;;;5093144;28;20080;-72
2021/08/24 08:01:54;;;;;;;7.38;5.30;;;16.50;99.90;;;;;;5091454;28;20020;-71
2021/08/24 08:04:25;;;;;;;9.23;6.15;;;16.50;99.90;;;;;;5092697;28;20039;-71
2021/08/24 08:06:51;;;;;;;6.68;5.40;;;16.60;99.90;;;;;;5092942;28;20586;-72
2021/08/24 08:09:20;;;;;;;7.28;5.10;;;16.70;99.90;;;;;;5093121;28;20085;-72
2021/08/24 08:11:47;;;;;;;10.45;4.40;;;16.70;99.90;;;;;;5090833;28;20024;-73
2021/08/24 08:14:13;;;;;;;7.53;4.65;;;16.70;99.90;;;;;;5091886;28;20052;-73
2021/08/24 08:16:39;;;;;;;8.57;3.95;;;16.80;99.90;;;;;;5092234;28;20013;-72
2021/08/24 08:19:05;;;;;;;6.97;3.85;;;16.90;99.90;;;;;;5091442;28;20024;-73
2021/08/24 08:21:33;;;;;;;10.23;4.35;;;17.00;99.90;;;;;;5092904;28;20020;-72
2021/08/24 08:24:00;;;;;;;5.45;4.10;;;17.10;99.90;;;;;;5090649;28;20384;-73
2021/08/24 08:26:27;;;;;;;7.93;4.07;;;17.10;99.90;;;;;;5091695;28;20023;-72
2021/08/24 08:28:53;;;;;;;4.47;3.40;;;17.20;99.90;;;;;;5091181;28;20472;-73
2021/08/24 08:31:18;;;;;;;5.72;3.95;;;17.20;99.90;;;;;;5092122;28;20035;-75
2021/08/24 08:33:44;;;;;;;5.32;4.10;;;17.40;99.90;;;;;;5092722;28;20024;-74
2021/08/24 08:36:09;;;;;;;5.93;3.78;;;17.40;99.90;;;;;;5091670;28;20127;-73
2021/08/24 08:38:35;;;;;;;5.75;3.50;;;17.40;99.90;;;;;;5092125;28;20020;-75
2021/08/24 08:41:22;;;;;;;7.97;4.10;;;17.50;99.90;;;;;;5091024;28;20032;-73
2021/08/24 08:43:58;;;;;;;7.18;3.88;;;17.70;99.90;;;;;;5092355;28;20480;-73
2021/08/24 08:46:36;;;;;;;4.15;3.55;;;17.80;99.90;;;;;;5092045;28;20024;-73
2021/08/24 08:49:30;;;;;;;8.45;3.60;;;17.90;99.90;;;;;;5092648;28;20032;-74
2021/08/24 08:52:21;;;;;;;6.35;3.78;;;17.90;99.90;;;;;;5091787;28;20024;-73
2021/08/24 08:55:12;;;;;;;6.55;4.60;;;17.90;99.90;;;;;;5091153;28;20384;-74
2021/08/24 08:57:46;;;;;;;5.80;4.00;;;18.00;99.90;;;;;;5092940;28;20487;-74
2021/08/24 09:00:16;;;;;;;7.82;4.30;;;18.00;99.90;;;;;;5092025;28;20027;-74
2021/08/24 09:02:59;;;;;;;6.00;3.60;;;18.10;99.90;;;;;;5092332;28;20079;-74
2021/08/24 09:05:26;;;;;;;5.97;3.83;;;18.20;99.90;;;;;;5095195;28;20020;-73
2021/08/24 09:07:55;;;;;;;4.22;3.00;;;18.30;99.90;;;;;;5095570;28;20024;-73
2021/08/24 09:10:32;;;;;;;6.38;3.08;;;18.30;99.90;;;;;;5096508;28;20461;-74
2021/08/24 09:13:20;;;;;;;6.70;4.00;;;18.40;99.90;;;;;;5095373;28;20051;-74
2021/08/24 09:15:52;;;;;;;6.90;3.78;;;18.50;99.90;;;;;;5094071;28;20036;-73
2021/08/24 09:18:25;;;;;;;6.15;3.55;;;18.60;99.90;;;;;;5096280;28;20024;-73
2021/08/24 09:21:00;;;;;;;5.03;3.30;;;18.70;99.90;;;;;;5093929;28;20157;-73
2021/08/24 09:23:26;;;;;;;5.57;3.63;;;18.70;99.90;;;;;;5096276;28;20035;-75
2021/08/24 09:26:03;;;;;;;4.35;3.15;;;18.90;99.90;;;;;;5094650;28;20023;-74
2021/08/24 09:28:32;;;;;;;4.65;3.17;;;19.00;99.90;;;;;;5095692;28;20051;-74
2021/08/24 09:30:58;;;;;;;5.38;3.50;;;19.20;99.90;;;;;;5095602;28;20051;-73
2021/08/24 09:33:28;;;;;;;8.30;3.58;;;19.20;99.90;;;;;;5094959;28;20028;-73
2021/08/24 09:35:55;;;;;;;4.45;3.05;;;19.20;99.90;;;;;;5095124;28;20066;-73
2021/08/24 09:38:28;;;;;;;4.90;3.20;;;19.20;99.90;;;;;;5094720;28;20116;-73
2021/08/24 09:40:59;;;;;;;5.55;3.42;;;19.10;99.90;;;;;;5094235;28;20019;-73
2021/08/24 09:43:28;;;;;;;6.60;3.70;;;19.20;99.90;;;;;;5094503;28;20032;-73
2021/08/24 09:46:00;;;;;;;5.88;3.72;;;19.20;99.90;;;;;;5094249;28;20099;-74
2021/08/24 09:48:27;;;;;;;4.43;3.15;;;19.50;99.90;;;;;;5095174;28;20027;-73
2021/08/24 09:50:53;;;;;;;4.78;3.05;;;19.70;99.90;;;;;;5095432;28;20461;-73
2021/08/24 09:53:35;;;;;;;4.68;3.60;;;19.90;99.90;;;;;;5095587;28;20043;-74
2021/08/24 09:56:05;;;;;;;5.53;3.47;;;19.90;99.90;;;;;;5094796;28;20031;-73
2021/08/24 09:58:37;;;;;;;7.43;3.80;;;20.00;99.90;;;;;;5095559;28;20028;-72
2021/08/24 10:01:08;;;;;;;5.80;3.78;;;20.10;99.90;;;;;;5093817;28;20031;-72
2021/08/24 10:03:37;;;;;;;5.90;3.70;;;20.00;99.90;;;;;;5094671;28;20408;-72
2021/08/24 10:06:25;;;;;;;6.95;4.07;;;19.90;99.90;;;;;;5094054;28;20111;-73
2021/08/24 10:08:56;;;;;;;10.10;3.40;;;19.80;99.90;;;;;;5094221;28;20366;-73
2021/08/24 10:11:32;;;;;;;7.43;3.30;;;19.90;99.90;;;;;;5094776;28;20465;-75
2021/08/24 10:14:18;;;;;;;3.30;2.78;;;20.10;99.90;;;;;;5093656;28;20630;-73
2021/08/24 10:16:46;;;;;;;3.72;2.92;;;20.40;99.90;;;;;;5093516;28;20044;-73
2021/08/24 10:19:20;;;;;;;6.15;3.38;;;20.50;99.90;;;;;;5095280;28;20101;-74
2021/08/24 10:21:55;;;;;;;4.28;3.28;;;20.50;99.90;;;;;;5093501;28;20028;-74
2021/08/24 10:24:26;;;;;;;8.65;3.75;;;20.50;99.90;;;;;;5094575;28;20455;-72
2021/08/24 10:26:56;;;;;;;3.63;2.92;;;20.40;99.90;;;;;;5093186;28;20110;-73
2021/08/24 10:29:31;;;;;;;5.13;3.28;;;20.40;99.90;;;;;;5093857;28;20107;-74
2021/08/24 10:32:02;;;;;;;3.67;2.50;;;20.60;99.90;;;;;;5092832;28;20027;-73
2021/08/24 10:34:48;;;;;;;4.90;2.95;;;20.60;99.90;;;;;;5095141;28;20016;-74
2021/08/24 10:37:26;;;;;;;3.40;2.53;;;20.80;99.90;;;;;;5094859;28;20105;-73
2021/08/24 10:39:52;;;;;;;3.65;2.42;;;21.00;99.90;;;;;;5093540;28;20060;-75
2021/08/24 10:42:28;;;;;;;2.88;2.03;;;21.30;99.90;;;;;;5093214;28;20032;-74
2021/08/24 10:44:57;;;;;;;4.40;2.42;;;21.60;99.90;;;;;;5092435;28;20376;-76
2021/08/24 10:47:26;;;;;;;6.57;2.92;;;21.80;99.90;;;;;;5094792;28;20388;-73
2021/08/24 10:49:58;;;;;;;3.80;2.35;;;22.00;99.90;;;;;;5094174;28;20050;-73
2021/08/24 10:52:45;;;;;;;3.42;2.60;;;22.00;99.90;;;;;;5092647;28;20127;-74
2021/08/24 10:55:15;;;;;;;3.72;2.60;;;21.90;99.90;;;;;;5093161;28;20027;-73
2021/08/24 10:58:06;;;;;;;4.32;2.65;;;21.70;99.90;;;;;;5092998;28;20055;-74
2021/08/24 11:00:57;;;;;;;2.50;2.30;;;21.60;99.80;;;;;;5092163;28;20024;-74
2021/08/24 11:03:35;;;;;;;2.50;2.30;;;21.50;99.90;;;;;;5094427;28;20389;-75
2021/08/24 11:06:35;;;;;;;8.15;3.50;;;21.40;99.90;;;;;;5093244;28;20504;-75
2021/08/24 11:09:13;;;;;;;3.15;2.35;;;21.40;99.90;;;;;;5081684;28;20405;-74
2021/08/24 11:11:47;;;;;;;5.57;2.50;;;21.30;99.90;;;;;;5093373;28;20093;-74
2021/08/24 11:14:33;;;;;;;3.28;2.20;;;21.30;98.90;;;;;;5093389;28;20416;-73
2021/08/24 11:17:25;;;;;;;2.63;2.35;;;21.20;97.70;;;;;;5092484;28;20035;-71
2021/08/24 11:20:05;;;;;;;3.53;2.28;;;21.10;98.10;;;;;;5091641;28;20492;-75
2021/08/24 11:22:54;;;;;;;3.40;2.40;;;21.00;98.10;;;;;;5093977;28;20377;-74
2021/08/24 11:25:55;;;;;;;4.63;2.38;;;20.90;97.50;;;;;;5092639;28;20500;-73
2021/08/24 11:28:37;;;;;;;2.92;2.20;;;21.00;98.20;;;;;;5079135;28;20032;-73
2021/08/24 11:31:27;;;;;;;3.05;2.15;;;21.10;98.40;;;;;;5093496;28;20025;-73
2021/08/24 11:34:14;;;;;;;3.20;2.58;;;21.10;98.70;;;;;;5091442;28;20020;-73
2021/08/24 11:37:14;;;;;;;3.40;2.38;;;21.20;98.20;;;;;;5092518;28;20487;-75
2021/08/24 11:39:54;;;;;;;4.53;2.95;;;21.10;98.00;;;;;;5093554;28;20024;-73
2021/08/24 11:42:32;;;;;;;3.53;2.40;;;21.00;95.80;;;;;;5091495;28;20028;-73
2021/08/24 11:44:59;;;;;;;2.53;2.13;;;21.10;96.20;;;;;;5092037;28;20025;-73
2021/08/24 11:47:44;;;;;;;2.92;2.17;;;21.20;95.20;;;;;;5092129;28;20024;-73
2021/08/24 11:50:16;;;;;;;3.03;2.20;;;21.20;94.50;;;;;;5092237;28;20020;-73
2021/08/24 11:52:46;;;;;;;4.68;3.08;;;21.30;93.40;;;;;;5091768;28;20024;-72
2021/08/24 11:55:26;;;;;;;4.70;2.47;;;21.40;93.60;;;;;;5092601;28;20081;-72
2021/08/24 11:58:16;;;;;;;3.05;2.47;;;21.50;93.80;;;;;;5093161;28;20024;-74
2021/08/24 12:00:53;;;;;;;3.08;2.28;;;21.60;94.00;;;;;;5091835;28;20020;-75
2021/08/24 12:03:21;;;;;;;3.08;2.40;;;21.70;94.10;;;;;;5092664;28;20032;-75
2021/08/24 12:06:13;;;;;;;3.38;2.33;;;21.80;92.70;;;;;;5093008;28;20081;-75
2021/08/24 12:08:48;;;;;;;;;;;21.90;91.70;;;;;;5093851;28;20028;-74
2021/08/24 12:11:23;;;;;;;4.07;2.72;;;21.80;91.50;;;;;;5093182;28;19904;-74
2021/08/24 12:13:55;;;;;;;4.93;3.08;;;21.70;91.90;;;;;;5091496;28;20413;-74
2021/08/24 12:16:23;;;;;;;4.78;2.60;;;21.70;91.80;;;;;;5092413;28;20032;-75
2021/08/24 12:19:10;;;;;;;4.75;2.20;;;21.60;91.90;;;;;;5092772;28;20453;-75
2021/08/24 12:22:14;;;;;;;3.13;2.75;;;21.50;91.90;;;;;;5091963;28;20299;-72
2021/08/24 12:24:52;;;;;;;3.95;2.63;;;21.50;91.90;;;;;;5082499;28;20051;-72
2021/08/24 12:27:42;;;;;;;3.53;2.67;;;21.40;92.00;;;;;;5091654;28;20023;-73
2021/08/24 12:30:16;;;;;;;2.90;2.58;;;21.60;92.50;;;;;;5086437;28;20051;-73
2021/08/24 12:32:48;;;;;;;3.00;2.58;;;21.70;92.50;;;;;;5092683;28;20020;-73
2021/08/24 12:35:15;;;;;;;4.35;3.10;;;21.70;92.00;;;;;;5091455;28;20400;-72
2021/08/24 12:37:40;;;;;;;4.85;2.33;;;21.80;92.10;;;;;;5091441;28;20107;-73
2021/08/24 12:40:12;;;;;;;2.90;2.30;;;21.90;92.00;;;;;;5093010;28;20083;-77
2021/08/24 12:42:40;;;;;;;3.00;2.70;;;22.00;92.20;;;;;;5091511;28;20400;-77
2021/08/24 12:45:07;;;;;;;5.05;3.20;;;22.20;92.20;;;;;;5091901;28;20046;-76
2021/08/24 12:47:46;;;;;;;4.63;3.50;;;22.40;92.10;;;;;;5092755;28;20016;-73
2021/08/24 12:50:12;;;;;;;4.63;3.40;;;22.50;92.30;;;;;;5092587;28;20031;-73
2021/08/24 12:52:45;;;;;;;5.05;3.90;;;22.60;92.30;;;;;;5090723;28;20024;-72
2021/08/24 12:55:29;;;;;;;4.57;3.42;;;22.70;91.00;;;;;;5092823;28;20039;-73
2021/08/24 12:58:22;;;;;;;5.18;3.13;;;22.70;90.70;;;;;;5090804;28;20043;-73
2021/08/24 13:01:10;;;;;;;5.90;3.55;;;22.70;90.60;;;;;;5064623;28;20028;-73
2021/08/24 13:03:38;;;;;;;3.20;2.88;;;22.90;90.60;;;;;;5091148;28;20071;-75
2021/08/24 13:06:25;;;;;;;4.38;2.85;;;23.20;90.70;;;;;;5091720;28;20013;-73
2021/08/24 13:09:13;;;;;;;3.15;2.33;;;23.50;90.40;;;;;;5092164;28;20056;-74